sensor_id;sensor_type;location;lat;lon;timestamp;temperature;humidity
50548;DHT22;38013;48.810;8.818;2023-02-25T00:00:29;7.20;73.70
50548;DHT22;38013;48.810;8.818;2023-02-25T00:02:57;7.20;73.70
50548;DHT22;38013;48.810;8.818;2023-02-25T00:05:24;7.10;74.40
50548;DHT22;38013;48.810;8.818;2023-02-25T00:07:52;7.10;74.70
50548;DHT22;38013;48.810;8.818;2023-02-25T00:10:19;7.10;74.80
50548;DHT22;38013;48.810;8.818;2023-02-25T00:12:46;7.10;74.40
50548;DHT22;38013;48.810;8.818;2023-02-25T00:15:13;7.00;75.30
50548;DHT22;38013;48.810;8.818;2023-02-25T00:17:39;7.00;75.30
50548;DHT22;38013;48.810;8.818;2023-02-25T00:20:07;7.00;75.40
50548;DHT22;38013;48.810;8.818;2023-02-25T00:22:35;6.90;75.80
50548;DHT22;38013;48.810;8.818;2023-02-25T00:25:02;6.80;75.50
50548;DHT22;38013;48.810;8.818;2023-02-25T00:27:28;6.80;76.20
50548;DHT22;38013;48.810;8.818;2023-02-25T00:29:55;6.80;76.30
50548;DHT22;38013;48.810;8.818;2023-02-25T00:32:22;6.80;75.90
50548;DHT22;38013;48.810;8.818;2023-02-25T00:34:49;6.80;75.70
50548;DHT22;38013;48.810;8.818;2023-02-25T00:37:17;6.70;76.50
50548;DHT22;38013;48.810;8.818;2023-02-25T00:39:44;6.70;76.50
50548;DHT22;38013;48.810;8.818;2023-02-25T00:42:13;6.70;76.20
50548;DHT22;38013;48.810;8.818;2023-02-25T00:44:44;6.70;76.70
50548;DHT22;38013;48.810;8.818;2023-02-25T00:47:14;6.70;76.00
50548;DHT22;38013;48.810;8.818;2023-02-25T00:49:44;6.60;76.10
50548;DHT22;38013;48.810;8.818;2023-02-25T00:52:13;6.60;76.50
50548;DHT22;38013;48.810;8.818;2023-02-25T00:54:40;6.60;76.20
50548;DHT22;38013;48.810;8.818;2023-02-25T00:57:07;6.60;75.70
50548;DHT22;38013;48.810;8.818;2023-02-25T00:59:34;6.60;75.50
50548;DHT22;38013;48.810;8.818;2023-02-25T01:02:01;6.60;75.70
50548;DHT22;38013;48.810;8.818;2023-02-25T01:04:28;6.60;75.50
50548;DHT22;38013;48.810;8.818;2023-02-25T01:06:55;6.60;75.20
50548;DHT22;38013;48.810;8.818;2023-02-25T01:09:22;6.60;74.80
50548;DHT22;38013;48.810;8.818;2023-02-25T01:11:49;6.60;74.60
50548;DHT22;38013;48.810;8.818;2023-02-25T01:14:17;6.60;74.70
50548;DHT22;38013;48.810;8.818;2023-02-25T01:16:46;6.60;74.60
50548;DHT22;38013;48.810;8.818;2023-02-25T01:19:17;6.60;74.50
50548;DHT22;38013;48.810;8.818;2023-02-25T01:21:47;6.60;74.30
50548;DHT22;38013;48.810;8.818;2023-02-25T01:24:20;6.60;74.20
50548;DHT22;38013;48.810;8.818;2023-02-25T01:26:49;6.60;74.30
50548;DHT22;38013;48.810;8.818;2023-02-25T01:29:18;6.60;74.00
50548;DHT22;38013;48.810;8.818;2023-02-25T01:31:48;6.60;74.20
50548;DHT22;38013;48.810;8.818;2023-02-25T01:34:17;6.60;73.90
50548;DHT22;38013;48.810;8.818;2023-02-25T01:36:44;6.60;74.00
50548;DHT22;38013;48.810;8.818;2023-02-25T01:39:12;6.60;73.90
50548;DHT22;38013;48.810;8.818;2023-02-25T01:41:39;6.60;73.80
50548;DHT22;38013;48.810;8.818;2023-02-25T01:44:21;6.60;73.80
50548;DHT22;38013;48.810;8.818;2023-02-25T01:46:55;6.50;73.40
50548;DHT22;38013;48.810;8.818;2023-02-25T01:49:35;6.50;73.40
50548;DHT22;38013;48.810;8.818;2023-02-25T01:52:09;6.50;73.30
50548;DHT22;38013;48.810;8.818;2023-02-25T01:54:38;6.50;73.30
50548;DHT22;38013;48.810;8.818;2023-02-25T01:57:05;6.40;73.40
50548;DHT22;38013;48.810;8.818;2023-02-25T01:59:34;6.30;73.40
50548;DHT22;38013;48.810;8.818;2023-02-25T02:02:01;6.30;73.40
50548;DHT22;38013;48.810;8.818;2023-02-25T02:04:28;6.30;73.60
50548;DHT22;38013;48.810;8.818;2023-02-25T02:06:56;6.30;73.60
50548;DHT22;38013;48.810;8.818;2023-02-25T02:09:24;6.30;73.40
50548;DHT22;38013;48.810;8.818;2023-02-25T02:11:56;6.30;73.30
50548;DHT22;38013;48.810;8.818;2023-02-25T02:14:25;6.30;73.40
50548;DHT22;38013;48.810;8.818;2023-02-25T02:20:03;6.30;73.40
50548;DHT22;38013;48.810;8.818;2023-02-25T02:33:07;6.30;73.10
50548;DHT22;38013;48.810;8.818;2023-02-25T02:38:24;6.30;72.90
50548;DHT22;38013;48.810;8.818;2023-02-25T02:41:07;6.40;72.90
50548;DHT22;38013;48.810;8.818;2023-02-25T02:43:41;6.40;73.00
50548;DHT22;38013;48.810;8.818;2023-02-25T02:46:17;6.40;72.90
50548;DHT22;38013;48.810;8.818;2023-02-25T02:48:55;6.40;72.70
50548;DHT22;38013;48.810;8.818;2023-02-25T02:51:30;6.40;72.60
50548;DHT22;38013;48.810;8.818;2023-02-25T02:54:00;6.40;72.40
50548;DHT22;38013;48.810;8.818;2023-02-25T02:56:31;6.40;72.40
50548;DHT22;38013;48.810;8.818;2023-02-25T02:59:01;6.40;72.50
50548;DHT22;38013;48.810;8.818;2023-02-25T03:01:33;6.40;72.60
50548;DHT22;38013;48.810;8.818;2023-02-25T03:04:04;6.40;72.40
50548;DHT22;38013;48.810;8.818;2023-02-25T03:06:34;6.40;72.30
50548;DHT22;38013;48.810;8.818;2023-02-25T03:09:09;6.30;72.20
50548;DHT22;38013;48.810;8.818;2023-02-25T03:11:38;6.40;72.40
50548;DHT22;38013;48.810;8.818;2023-02-25T03:14:05;6.30;72.40
50548;DHT22;38013;48.810;8.818;2023-02-25T03:16:37;6.30;72.30
50548;DHT22;38013;48.810;8.818;2023-02-25T03:19:17;6.30;72.30
50548;DHT22;38013;48.810;8.818;2023-02-25T03:21:51;6.30;72.50
50548;DHT22;38013;48.810;8.818;2023-02-25T03:24:22;6.30;72.40
50548;DHT22;38013;48.810;8.818;2023-02-25T03:26:53;6.30;72.30
50548;DHT22;38013;48.810;8.818;2023-02-25T03:29:22;6.30;72.30
50548;DHT22;38013;48.810;8.818;2023-02-25T03:34:23;6.30;72.30
50548;DHT22;38013;48.810;8.818;2023-02-25T03:36:56;6.30;72.30
50548;DHT22;38013;48.810;8.818;2023-02-25T03:39:27;6.20;72.30
50548;DHT22;38013;48.810;8.818;2023-02-25T03:41:56;6.20;72.20
50548;DHT22;38013;48.810;8.818;2023-02-25T03:44:26;6.20;72.10
50548;DHT22;38013;48.810;8.818;2023-02-25T03:47:02;6.20;72.10
50548;DHT22;38013;48.810;8.818;2023-02-25T03:49:34;6.20;71.90
50548;DHT22;38013;48.810;8.818;2023-02-25T03:52:08;6.20;70.70
50548;DHT22;38013;48.810;8.818;2023-02-25T03:54:39;6.20;70.40
50548;DHT22;38013;48.810;8.818;2023-02-25T03:57:07;6.10;70.30
50548;DHT22;38013;48.810;8.818;2023-02-25T03:59:34;6.00;70.20
50548;DHT22;38013;48.810;8.818;2023-02-25T04:02:01;6.00;70.40
50548;DHT22;38013;48.810;8.818;2023-02-25T04:04:28;6.00;69.60
50548;DHT22;38013;48.810;8.818;2023-02-25T04:06:55;5.90;70.10
50548;DHT22;38013;48.810;8.818;2023-02-25T04:09:22;5.80;69.80
50548;DHT22;38013;48.810;8.818;2023-02-25T04:11:49;5.80;69.90
50548;DHT22;38013;48.810;8.818;2023-02-25T04:14:16;5.80;70.20
50548;DHT22;38013;48.810;8.818;2023-02-25T04:16:43;5.70;69.90
50548;DHT22;38013;48.810;8.818;2023-02-25T04:19:10;5.70;70.00
50548;DHT22;38013;48.810;8.818;2023-02-25T04:21:37;5.70;70.40
50548;DHT22;38013;48.810;8.818;2023-02-25T04:24:05;5.70;70.00
50548;DHT22;38013;48.810;8.818;2023-02-25T04:26:32;5.70;70.00
50548;DHT22;38013;48.810;8.818;2023-02-25T04:29:00;5.70;70.20
50548;DHT22;38013;48.810;8.818;2023-02-25T04:31:26;5.70;70.20
50548;DHT22;38013;48.810;8.818;2023-02-25T04:33:53;5.60;70.30
50548;DHT22;38013;48.810;8.818;2023-02-25T04:36:24;5.60;70.40
50548;DHT22;38013;48.810;8.818;2023-02-25T04:38:53;5.60;70.30
50548;DHT22;38013;48.810;8.818;2023-02-25T04:41:20;5.60;70.20
50548;DHT22;38013;48.810;8.818;2023-02-25T04:43:47;5.60;70.10
50548;DHT22;38013;48.810;8.818;2023-02-25T04:46:14;5.60;70.00
50548;DHT22;38013;48.810;8.818;2023-02-25T04:48:41;5.60;69.90
50548;DHT22;38013;48.810;8.818;2023-02-25T04:51:08;5.60;69.80
50548;DHT22;38013;48.810;8.818;2023-02-25T04:53:34;5.60;69.80
50548;DHT22;38013;48.810;8.818;2023-02-25T04:56:02;5.60;69.80
50548;DHT22;38013;48.810;8.818;2023-02-25T04:58:31;5.60;70.00
50548;DHT22;38013;48.810;8.818;2023-02-25T05:00:59;5.60;70.00
50548;DHT22;38013;48.810;8.818;2023-02-25T05:03:27;5.60;70.00
50548;DHT22;38013;48.810;8.818;2023-02-25T05:05:54;5.60;69.90
50548;DHT22;38013;48.810;8.818;2023-02-25T05:08:21;5.60;70.00
50548;DHT22;38013;48.810;8.818;2023-02-25T05:10:48;5.60;70.00
50548;DHT22;38013;48.810;8.818;2023-02-25T05:13:15;5.60;70.00
50548;DHT22;38013;48.810;8.818;2023-02-25T05:15:42;5.60;70.00
50548;DHT22;38013;48.810;8.818;2023-02-25T05:18:09;5.60;70.00
50548;DHT22;38013;48.810;8.818;2023-02-25T05:20:42;5.60;70.00
50548;DHT22;38013;48.810;8.818;2023-02-25T05:23:10;5.70;69.70
50548;DHT22;38013;48.810;8.818;2023-02-25T05:25:37;5.60;69.40
50548;DHT22;38013;48.810;8.818;2023-02-25T05:28:08;5.60;69.40
50548;DHT22;38013;48.810;8.818;2023-02-25T05:30:36;5.60;69.20
50548;DHT22;38013;48.810;8.818;2023-02-25T05:33:04;5.60;69.30
50548;DHT22;38013;48.810;8.818;2023-02-25T05:35:32;5.60;68.90
50548;DHT22;38013;48.810;8.818;2023-02-25T05:37:58;5.60;69.30
50548;DHT22;38013;48.810;8.818;2023-02-25T05:40:25;5.60;69.40
50548;DHT22;38013;48.810;8.818;2023-02-25T05:42:52;5.60;69.40
50548;DHT22;38013;48.810;8.818;2023-02-25T05:45:19;5.60;69.40
50548;DHT22;38013;48.810;8.818;2023-02-25T05:47:46;5.60;69.30
50548;DHT22;38013;48.810;8.818;2023-02-25T05:50:12;5.60;69.20
50548;DHT22;38013;48.810;8.818;2023-02-25T05:52:40;5.60;69.30
50548;DHT22;38013;48.810;8.818;2023-02-25T05:55:07;5.60;69.20
50548;DHT22;38013;48.810;8.818;2023-02-25T05:57:34;5.60;69.30
50548;DHT22;38013;48.810;8.818;2023-02-25T06:00:02;5.70;69.40
50548;DHT22;38013;48.810;8.818;2023-02-25T06:02:37;5.60;69.20
50548;DHT22;38013;48.810;8.818;2023-02-25T06:05:04;5.70;69.10
50548;DHT22;38013;48.810;8.818;2023-02-25T06:07:31;5.70;69.20
50548;DHT22;38013;48.810;8.818;2023-02-25T06:09:59;5.60;69.00
50548;DHT22;38013;48.810;8.818;2023-02-25T06:12:27;5.70;69.20
50548;DHT22;38013;48.810;8.818;2023-02-25T06:14:55;5.70;68.90
50548;DHT22;38013;48.810;8.818;2023-02-25T06:17:22;5.60;68.50
50548;DHT22;38013;48.810;8.818;2023-02-25T06:19:51;5.60;68.60
50548;DHT22;38013;48.810;8.818;2023-02-25T06:22:19;5.60;68.10
50548;DHT22;38013;48.810;8.818;2023-02-25T06:24:46;5.60;68.20
50548;DHT22;38013;48.810;8.818;2023-02-25T06:27:13;5.60;68.70
50548;DHT22;38013;48.810;8.818;2023-02-25T06:29:41;5.60;68.60
50548;DHT22;38013;48.810;8.818;2023-02-25T06:32:08;5.60;68.80
50548;DHT22;38013;48.810;8.818;2023-02-25T06:34:35;5.50;68.30
50548;DHT22;38013;48.810;8.818;2023-02-25T06:37:03;5.50;68.20
50548;DHT22;38013;48.810;8.818;2023-02-25T06:39:30;5.50;68.50
50548;DHT22;38013;48.810;8.818;2023-02-25T06:41:57;5.50;68.60
50548;DHT22;38013;48.810;8.818;2023-02-25T06:44:24;5.50;68.50
50548;DHT22;38013;48.810;8.818;2023-02-25T06:46:52;5.50;68.60
50548;DHT22;38013;48.810;8.818;2023-02-25T06:49:21;5.50;68.60
50548;DHT22;38013;48.810;8.818;2023-02-25T06:51:48;5.50;68.30
50548;DHT22;38013;48.810;8.818;2023-02-25T06:54:15;5.50;68.60
50548;DHT22;38013;48.810;8.818;2023-02-25T06:56:43;5.50;68.70
50548;DHT22;38013;48.810;8.818;2023-02-25T06:59:10;5.50;68.90
50548;DHT22;38013;48.810;8.818;2023-02-25T07:01:37;5.50;69.00
50548;DHT22;38013;48.810;8.818;2023-02-25T07:04:03;5.60;69.00
50548;DHT22;38013;48.810;8.818;2023-02-25T07:06:30;5.60;68.70
50548;DHT22;38013;48.810;8.818;2023-02-25T07:08:57;5.60;68.40
50548;DHT22;38013;48.810;8.818;2023-02-25T07:13:50;5.60;68.60
50548;DHT22;38013;48.810;8.818;2023-02-25T07:16:17;5.70;68.80
50548;DHT22;38013;48.810;8.818;2023-02-25T07:18:44;5.60;68.70
50548;DHT22;38013;48.810;8.818;2023-02-25T07:21:11;5.70;67.70
50548;DHT22;38013;48.810;8.818;2023-02-25T07:23:39;5.70;67.30
50548;DHT22;38013;48.810;8.818;2023-02-25T07:26:07;5.60;66.10
50548;DHT22;38013;48.810;8.818;2023-02-25T07:28:34;5.70;66.50
50548;DHT22;38013;48.810;8.818;2023-02-25T07:31:02;5.70;66.10
50548;DHT22;38013;48.810;8.818;2023-02-25T07:33:31;5.60;64.80
50548;DHT22;38013;48.810;8.818;2023-02-25T07:35:58;5.60;65.70
50548;DHT22;38013;48.810;8.818;2023-02-25T07:38:24;5.70;64.90
50548;DHT22;38013;48.810;8.818;2023-02-25T07:40:51;5.70;63.70
50548;DHT22;38013;48.810;8.818;2023-02-25T07:43:18;5.70;64.90
50548;DHT22;38013;48.810;8.818;2023-02-25T07:45:45;5.70;65.20
50548;DHT22;38013;48.810;8.818;2023-02-25T07:48:11;5.70;65.80
50548;DHT22;38013;48.810;8.818;2023-02-25T07:50:38;5.70;65.50
50548;DHT22;38013;48.810;8.818;2023-02-25T07:53:05;5.70;66.30
50548;DHT22;38013;48.810;8.818;2023-02-25T07:55:31;5.70;65.20
50548;DHT22;38013;48.810;8.818;2023-02-25T07:57:58;5.70;65.60
50548;DHT22;38013;48.810;8.818;2023-02-25T08:00:25;5.60;66.00
50548;DHT22;38013;48.810;8.818;2023-02-25T08:02:53;5.60;65.80
50548;DHT22;38013;48.810;8.818;2023-02-25T08:05:20;5.60;66.10
50548;DHT22;38013;48.810;8.818;2023-02-25T08:07:48;5.60;65.70
50548;DHT22;38013;48.810;8.818;2023-02-25T08:10:15;5.60;65.90
50548;DHT22;38013;48.810;8.818;2023-02-25T08:12:42;5.60;65.50
50548;DHT22;38013;48.810;8.818;2023-02-25T08:15:09;5.60;65.90
50548;DHT22;38013;48.810;8.818;2023-02-25T08:17:36;5.60;66.10
50548;DHT22;38013;48.810;8.818;2023-02-25T08:20:03;5.60;65.80
50548;DHT22;38013;48.810;8.818;2023-02-25T08:22:31;5.60;66.20
50548;DHT22;38013;48.810;8.818;2023-02-25T08:24:57;5.60;66.30
50548;DHT22;38013;48.810;8.818;2023-02-25T08:27:24;5.70;66.00
50548;DHT22;38013;48.810;8.818;2023-02-25T08:29:53;5.70;65.40
50548;DHT22;38013;48.810;8.818;2023-02-25T08:32:22;5.70;64.70
50548;DHT22;38013;48.810;8.818;2023-02-25T08:34:51;5.70;64.90
50548;DHT22;38013;48.810;8.818;2023-02-25T08:37:18;5.70;65.40
50548;DHT22;38013;48.810;8.818;2023-02-25T08:39:45;5.80;65.20
50548;DHT22;38013;48.810;8.818;2023-02-25T08:42:11;5.80;64.20
50548;DHT22;38013;48.810;8.818;2023-02-25T08:44:40;5.80;63.90
50548;DHT22;38013;48.810;8.818;2023-02-25T08:47:06;5.80;64.40
50548;DHT22;38013;48.810;8.818;2023-02-25T08:49:33;5.90;63.40
50548;DHT22;38013;48.810;8.818;2023-02-25T08:52:00;5.90;63.80
50548;DHT22;38013;48.810;8.818;2023-02-25T08:54:27;5.90;64.70
50548;DHT22;38013;48.810;8.818;2023-02-25T08:56:53;5.90;64.30
50548;DHT22;38013;48.810;8.818;2023-02-25T08:59:22;5.90;63.90
50548;DHT22;38013;48.810;8.818;2023-02-25T09:01:49;5.90;63.60
50548;DHT22;38013;48.810;8.818;2023-02-25T09:04:18;6.00;63.20
50548;DHT22;38013;48.810;8.818;2023-02-25T09:06:48;6.00;62.50
50548;DHT22;38013;48.810;8.818;2023-02-25T09:09:16;6.10;64.90
50548;DHT22;38013;48.810;8.818;2023-02-25T09:11:45;6.10;63.70
50548;DHT22;38013;48.810;8.818;2023-02-25T09:14:12;6.10;61.10
50548;DHT22;38013;48.810;8.818;2023-02-25T09:16:39;6.20;59.90
50548;DHT22;38013;48.810;8.818;2023-02-25T09:19:06;6.20;61.30
50548;DHT22;38013;48.810;8.818;2023-02-25T09:21:33;6.30;63.10
50548;DHT22;38013;48.810;8.818;2023-02-25T09:24:01;6.30;62.60
50548;DHT22;38013;48.810;8.818;2023-02-25T09:26:28;6.30;62.70
50548;DHT22;38013;48.810;8.818;2023-02-25T09:28:54;6.40;62.60
50548;DHT22;38013;48.810;8.818;2023-02-25T09:31:21;6.50;62.00
50548;DHT22;38013;48.810;8.818;2023-02-25T09:33:48;6.60;62.40
50548;DHT22;38013;48.810;8.818;2023-02-25T09:36:16;6.70;59.80
50548;DHT22;38013;48.810;8.818;2023-02-25T09:38:45;6.80;59.20
50548;DHT22;38013;48.810;8.818;2023-02-25T09:46:32;7.00;60.10
50548;DHT22;38013;48.810;8.818;2023-02-25T09:49:02;7.00;57.90
50548;DHT22;38013;48.810;8.818;2023-02-25T09:51:33;7.00;58.90
50548;DHT22;38013;48.810;8.818;2023-02-25T09:56:50;7.10;59.90
50548;DHT22;38013;48.810;8.818;2023-02-25T09:59:18;7.10;58.50
50548;DHT22;38013;48.810;8.818;2023-02-25T10:01:50;7.10;58.80
50548;DHT22;38013;48.810;8.818;2023-02-25T10:04:23;7.00;58.40
50548;DHT22;38013;48.810;8.818;2023-02-25T10:06:56;7.00;58.00
50548;DHT22;38013;48.810;8.818;2023-02-25T10:09:31;7.00;59.40
50548;DHT22;38013;48.810;8.818;2023-02-25T10:17:59;7.10;60.10
50548;DHT22;38013;48.810;8.818;2023-02-25T10:20:47;7.10;60.50
50548;DHT22;38013;48.810;8.818;2023-02-25T10:26:24;7.30;59.30
50548;DHT22;38013;48.810;8.818;2023-02-25T10:29:05;7.30;59.50
50548;DHT22;38013;48.810;8.818;2023-02-25T10:31:33;7.30;59.50
50548;DHT22;38013;48.810;8.818;2023-02-25T10:34:04;7.30;60.50
50548;DHT22;38013;48.810;8.818;2023-02-25T10:36:46;7.30;60.00
50548;DHT22;38013;48.810;8.818;2023-02-25T10:39:18;7.30;60.50
50548;DHT22;38013;48.810;8.818;2023-02-25T10:41:45;7.30;60.90
50548;DHT22;38013;48.810;8.818;2023-02-25T10:44:12;7.40;60.90
50548;DHT22;38013;48.810;8.818;2023-02-25T10:46:41;7.40;61.40
50548;DHT22;38013;48.810;8.818;2023-02-25T10:49:23;7.50;60.00
50548;DHT22;38013;48.810;8.818;2023-02-25T10:51:55;7.50;60.40
50548;DHT22;38013;48.810;8.818;2023-02-25T10:54:31;7.50;59.10
50548;DHT22;38013;48.810;8.818;2023-02-25T10:57:00;7.60;60.40
50548;DHT22;38013;48.810;8.818;2023-02-25T10:59:37;7.50;58.80
50548;DHT22;38013;48.810;8.818;2023-02-25T11:02:21;7.50;57.80
50548;DHT22;38013;48.810;8.818;2023-02-25T11:04:51;7.60;58.80
50548;DHT22;38013;48.810;8.818;2023-02-25T11:07:36;7.60;57.30
50548;DHT22;38013;48.810;8.818;2023-02-25T11:10:18;7.60;57.40
50548;DHT22;38013;48.810;8.818;2023-02-25T11:12:47;7.60;59.70
50548;DHT22;38013;48.810;8.818;2023-02-25T11:18:22;7.50;59.20
50548;DHT22;38013;48.810;8.818;2023-02-25T11:20:54;7.50;56.60
50548;DHT22;38013;48.810;8.818;2023-02-25T11:23:23;7.50;59.00
50548;DHT22;38013;48.810;8.818;2023-02-25T11:26:00;7.50;58.70
50548;DHT22;38013;48.810;8.818;2023-02-25T11:28:30;7.40;57.80
50548;DHT22;38013;48.810;8.818;2023-02-25T11:31:14;7.40;58.10
50548;DHT22;38013;48.810;8.818;2023-02-25T11:33:48;7.40;58.40
50548;DHT22;38013;48.810;8.818;2023-02-25T11:36:23;7.30;58.20
50548;DHT22;38013;48.810;8.818;2023-02-25T11:39:03;7.20;57.10
50548;DHT22;38013;48.810;8.818;2023-02-25T11:41:41;7.20;57.80
50548;DHT22;38013;48.810;8.818;2023-02-25T11:44:26;7.10;59.00
50548;DHT22;38013;48.810;8.818;2023-02-25T11:46:56;7.10;58.70
50548;DHT22;38013;48.810;8.818;2023-02-25T11:52:10;7.00;58.80
50548;DHT22;38013;48.810;8.818;2023-02-25T11:54:45;7.00;58.80
50548;DHT22;38013;48.810;8.818;2023-02-25T12:02:46;7.00;59.70
50548;DHT22;38013;48.810;8.818;2023-02-25T12:05:51;7.00;59.30
50548;DHT22;38013;48.810;8.818;2023-02-25T12:11:33;7.00;59.30
50548;DHT22;38013;48.810;8.818;2023-02-25T12:14:38;7.00;59.30
50548;DHT22;38013;48.810;8.818;2023-02-25T12:17:19;7.00;60.00
50548;DHT22;38013;48.810;8.818;2023-02-25T12:42:29;6.80;59.80
50548;DHT22;38013;48.810;8.818;2023-02-25T12:45:13;6.80;59.90
50548;DHT22;38013;48.810;8.818;2023-02-25T12:53:29;6.70;60.30
50548;DHT22;38013;48.810;8.818;2023-02-25T12:56:17;6.60;60.70
50548;DHT22;38013;48.810;8.818;2023-02-25T13:04:37;6.40;62.10
50548;DHT22;38013;48.810;8.818;2023-02-25T13:07:20;6.40;62.20
50548;DHT22;38013;48.810;8.818;2023-02-25T13:09:59;6.30;62.50
50548;DHT22;38013;48.810;8.818;2023-02-25T13:12:32;6.30;62.20
50548;DHT22;38013;48.810;8.818;2023-02-25T13:18:33;6.20;62.30
50548;DHT22;38013;48.810;8.818;2023-02-25T13:21:23;6.20;62.30
50548;DHT22;38013;48.810;8.818;2023-02-25T13:37:30;6.20;62.30
50548;DHT22;38013;48.810;8.818;2023-02-25T13:43:20;6.30;62.30
50548;DHT22;38013;48.810;8.818;2023-02-25T13:46:20;6.40;62.50
50548;DHT22;38013;48.810;8.818;2023-02-25T13:51:44;6.60;62.60
50548;DHT22;38013;48.810;8.818;2023-02-25T13:59:56;7.00;61.40
50548;DHT22;38013;48.810;8.818;2023-02-25T14:17:38;8.90;60.30
50548;DHT22;38013;48.810;8.818;2023-02-25T14:23:11;9.90;57.80
50548;DHT22;38013;48.810;8.818;2023-02-25T14:28:36;10.20;53.70
50548;DHT22;38013;48.810;8.818;2023-02-25T14:34:26;10.00;53.70
50548;DHT22;38013;48.810;8.818;2023-02-25T14:37:14;9.90;54.30
50548;DHT22;38013;48.810;8.818;2023-02-25T14:40:21;9.70;53.90
50548;DHT22;38013;48.810;8.818;2023-02-25T14:45:45;9.30;54.50
50548;DHT22;38013;48.810;8.818;2023-02-25T14:48:22;9.10;54.10
50548;DHT22;38013;48.810;8.818;2023-02-25T14:56:46;8.80;55.40
50548;DHT22;38013;48.810;8.818;2023-02-25T15:13:56;8.30;55.30
50548;DHT22;38013;48.810;8.818;2023-02-25T15:22:48;8.10;54.90
50548;DHT22;38013;48.810;8.818;2023-02-25T15:27:49;8.00;56.60
50548;DHT22;38013;48.810;8.818;2023-02-25T15:30:24;7.90;56.90
50548;DHT22;38013;48.810;8.818;2023-02-25T15:38:08;7.70;55.50
50548;DHT22;38013;48.810;8.818;2023-02-25T15:46:24;7.80;58.30
50548;DHT22;38013;48.810;8.818;2023-02-25T15:49:01;7.90;58.60
50548;DHT22;38013;48.810;8.818;2023-02-25T15:56:58;8.50;57.80
50548;DHT22;38013;48.810;8.818;2023-02-25T15:59:46;8.60;59.60
50548;DHT22;38013;48.810;8.818;2023-02-25T16:07:37;8.70;56.00
50548;DHT22;38013;48.810;8.818;2023-02-25T16:12:33;8.60;56.10
50548;DHT22;38013;48.810;8.818;2023-02-25T16:15:00;8.50;55.40
50548;DHT22;38013;48.810;8.818;2023-02-25T16:17:29;8.40;55.30
50548;DHT22;38013;48.810;8.818;2023-02-25T16:20:04;8.30;55.40
50548;DHT22;38013;48.810;8.818;2023-02-25T16:22:45;8.10;55.90
50548;DHT22;38013;48.810;8.818;2023-02-25T16:25:13;8.00;55.40
50548;DHT22;38013;48.810;8.818;2023-02-25T16:30:36;7.70;56.30
50548;DHT22;38013;48.810;8.818;2023-02-25T16:33:29;7.60;56.90
50548;DHT22;38013;48.810;8.818;2023-02-25T16:38:55;7.40;57.50
50548;DHT22;38013;48.810;8.818;2023-02-25T16:41:22;7.20;57.60
50548;DHT22;38013;48.810;8.818;2023-02-25T16:44:03;7.20;58.30
50548;DHT22;38013;48.810;8.818;2023-02-25T16:46:31;7.00;59.40
50548;DHT22;38013;48.810;8.818;2023-02-25T16:49:00;7.00;59.30
50548;DHT22;38013;48.810;8.818;2023-02-25T16:51:35;6.90;59.60
50548;DHT22;38013;48.810;8.818;2023-02-25T16:54:04;6.80;59.80
50548;DHT22;38013;48.810;8.818;2023-02-25T16:56:34;6.70;60.10
50548;DHT22;38013;48.810;8.818;2023-02-25T17:01:46;6.60;60.30
50548;DHT22;38013;48.810;8.818;2023-02-25T17:04:20;6.60;60.50
50548;DHT22;38013;48.810;8.818;2023-02-25T17:07:06;6.50;60.70
50548;DHT22;38013;48.810;8.818;2023-02-25T17:09:34;6.40;61.10
50548;DHT22;38013;48.810;8.818;2023-02-25T17:12:01;6.40;61.30
50548;DHT22;38013;48.810;8.818;2023-02-25T17:14:28;6.40;61.50
50548;DHT22;38013;48.810;8.818;2023-02-25T17:16:56;6.30;61.50
50548;DHT22;38013;48.810;8.818;2023-02-25T17:19:23;6.40;61.90
50548;DHT22;38013;48.810;8.818;2023-02-25T17:21:55;6.30;61.80
50548;DHT22;38013;48.810;8.818;2023-02-25T17:24:26;6.30;62.20
50548;DHT22;38013;48.810;8.818;2023-02-25T17:26:54;6.30;62.30
50548;DHT22;38013;48.810;8.818;2023-02-25T17:29:21;6.30;62.30
50548;DHT22;38013;48.810;8.818;2023-02-25T17:32:00;6.20;62.70
50548;DHT22;38013;48.810;8.818;2023-02-25T17:34:38;6.20;63.40
50548;DHT22;38013;48.810;8.818;2023-02-25T17:37:06;6.20;63.50
50548;DHT22;38013;48.810;8.818;2023-02-25T17:39:34;6.10;63.80
50548;DHT22;38013;48.810;8.818;2023-02-25T17:42:01;6.10;63.70
50548;DHT22;38013;48.810;8.818;2023-02-25T17:47:08;6.00;64.10
50548;DHT22;38013;48.810;8.818;2023-02-25T17:49:36;5.90;65.40
50548;DHT22;38013;48.810;8.818;2023-02-25T17:52:13;5.80;65.30
50548;DHT22;38013;48.810;8.818;2023-02-25T17:54:44;5.70;65.10
50548;DHT22;38013;48.810;8.818;2023-02-25T17:57:20;5.60;66.40
50548;DHT22;38013;48.810;8.818;2023-02-25T17:59:51;5.50;66.60
50548;DHT22;38013;48.810;8.818;2023-02-25T18:02:27;5.50;65.70
50548;DHT22;38013;48.810;8.818;2023-02-25T18:05:41;5.40;65.10
50548;DHT22;38013;48.810;8.818;2023-02-25T18:13:00;5.20;64.80
50548;DHT22;38013;48.810;8.818;2023-02-25T18:15:29;5.20;65.30
50548;DHT22;38013;48.810;8.818;2023-02-25T18:17:57;5.20;65.00
50548;DHT22;38013;48.810;8.818;2023-02-25T18:20:34;5.20;64.80
50548;DHT22;38013;48.810;8.818;2023-02-25T18:23:02;5.10;65.10
50548;DHT22;38013;48.810;8.818;2023-02-25T18:28:03;5.00;65.30
50548;DHT22;38013;48.810;8.818;2023-02-25T18:30:31;5.00;65.20
50548;DHT22;38013;48.810;8.818;2023-02-25T18:32:58;5.00;65.20
50548;DHT22;38013;48.810;8.818;2023-02-25T18:35:25;4.90;65.10
50548;DHT22;38013;48.810;8.818;2023-02-25T18:37:54;4.80;65.90
50548;DHT22;38013;48.810;8.818;2023-02-25T18:40:26;4.70;65.50
50548;DHT22;38013;48.810;8.818;2023-02-25T18:42:55;4.70;65.60
50548;DHT22;38013;48.810;8.818;2023-02-25T18:45:23;4.60;65.60
50548;DHT22;38013;48.810;8.818;2023-02-25T18:47:53;4.60;66.00
50548;DHT22;38013;48.810;8.818;2023-02-25T18:50:22;4.50;66.00
50548;DHT22;38013;48.810;8.818;2023-02-25T18:52:49;4.60;65.80
50548;DHT22;38013;48.810;8.818;2023-02-25T18:55:18;4.50;65.70
50548;DHT22;38013;48.810;8.818;2023-02-25T18:57:49;4.50;65.60
50548;DHT22;38013;48.810;8.818;2023-02-25T19:00:17;4.40;66.00
50548;DHT22;38013;48.810;8.818;2023-02-25T19:02:46;4.40;65.90
50548;DHT22;38013;48.810;8.818;2023-02-25T19:05:14;4.40;65.90
50548;DHT22;38013;48.810;8.818;2023-02-25T19:07:42;4.40;65.50
50548;DHT22;38013;48.810;8.818;2023-02-25T19:10:10;4.40;65.60
50548;DHT22;38013;48.810;8.818;2023-02-25T19:12:41;4.30;65.40
50548;DHT22;38013;48.810;8.818;2023-02-25T19:15:11;4.30;65.70
50548;DHT22;38013;48.810;8.818;2023-02-25T19:17:39;4.30;65.60
50548;DHT22;38013;48.810;8.818;2023-02-25T19:20:06;4.30;65.60
50548;DHT22;38013;48.810;8.818;2023-02-25T19:22:39;4.30;65.90
50548;DHT22;38013;48.810;8.818;2023-02-25T19:25:19;4.30;66.20
50548;DHT22;38013;48.810;8.818;2023-02-25T19:27:47;4.20;65.80
50548;DHT22;38013;48.810;8.818;2023-02-25T19:30:16;4.20;65.80
50548;DHT22;38013;48.810;8.818;2023-02-25T19:32:43;4.20;65.70
50548;DHT22;38013;48.810;8.818;2023-02-25T19:35:10;4.20;65.60
50548;DHT22;38013;48.810;8.818;2023-02-25T19:37:38;4.10;65.60
50548;DHT22;38013;48.810;8.818;2023-02-25T19:40:07;4.10;65.70